Time,TemperatureF,DewpointF,PressureIn,WindDirection,WindDirectionDegrees,WindSpeedMPH,WindSpeedGustMPH,Humidity,HourlyPrecipIn,Conditions,Clouds,dailyrainin,SoftwareType,DateUTC
2013-05-12 00:03:00,-999.0,-99.9,29.62,WSW,254,0.0,-999.0,96,-99.99,,,-99.99,,2013-05-12 04:03:00,
2013-05-12 00:12:00,65.0,64.0,29.62,WSW,254,0.0,-999.0,96,-99.99,,,-99.99,,2013-05-12 04:12:00,
2013-05-12 00:22:00,65.0,64.0,29.62,WSW,255,0.0,-999.0,96,-99.99,,,-99.99,,2013-05-12 04:22:00,
2013-05-12 00:33:00,65.0,64.0,29.62,WSW,238,0.0,-999.0,96,-99.99,,,-99.99,,2013-05-12 04:33:00,
2013-05-12 00:43:00,65.0,64.0,29.62,WSW,238,0.0,-999.0,96,-99.99,,,-99.99,,2013-05-12 04:43:00,
2013-05-12 00:52:00,65.0,64.0,29.61,SSW,212,0.0,-999.0,96,-99.99,,,-99.99,,2013-05-12 04:52:00,
2013-05-12 01:02:00,65.0,64.0,29.60,SSW,212,0.0,-999.0,96,-99.99,,,-99.99,,2013-05-12 05:02:00,
2013-05-12 01:12:00,65.0,64.0,29.60,SSW,212,0.0,-999.0,96,-99.99,,,-99.99,,2013-05-12 05:12:00,
2013-05-12 01:22:00,65.0,64.0,29.61,West,266,0.0,-999.0,96,-99.99,,,-99.99,,2013-05-12 05:22:00,
2013-05-12 01:32:00,65.0,64.0,29.60,SW,234,0.0,-999.0,96,-99.99,,,-99.99,,2013-05-12 05:32:00,
2013-05-12 01:42:00,65.0,64.0,29.60,SW,234,0.0,-999.0,96,-99.99,,,-99.99,,2013-05-12 05:42:00,
2013-05-12 01:51:00,64.0,63.0,29.59,NNW,331,1.0,-999.0,95,-99.99,,,-99.99,,2013-05-12 05:51:00,
2013-05-12 02:02:00,62.0,61.0,29.59,NNW,329,0.0,-999.0,95,-99.99,,,-99.99,,2013-05-12 06:02:00,
2013-05-12 02:11:00,62.0,61.0,29.59,NNW,329,0.0,-999.0,95,-99.99,,,-99.99,,2013-05-12 06:11:00,
2013-05-12 02:21:00,62.0,61.0,29.59,NW,321,0.0,-999.0,95,-99.99,,,-99.99,,2013-05-12 06:21:00,
2013-05-12 02:32:00,61.0,60.0,29.57,WNW,290,0.0,-999.0,95,-99.99,,,-99.99,,2013-05-12 06:32:00,
2013-05-12 02:42:00,61.0,60.0,29.58,WNW,288,0.0,-999.0,95,-99.99,,,-99.99,,2013-05-12 06:42:00,
2013-05-12 02:52:00,61.0,60.0,29.58,WNW,288,0.0,-999.0,95,-99.99,,,-99.99,,2013-05-12 06:52:00,
2013-05-12 03:01:00,60.0,59.0,29.59,WNW,288,0.0,-999.0,95,-99.99,,,-99.99,,2013-05-12 07:01:00,
2013-05-12 03:11:00,60.0,59.0,29.59,WNW,288,0.0,-999.0,95,-99.99,,,-99.99,,2013-05-12 07:11:00,
2013-05-12 03:22:00,60.0,59.0,29.59,WNW,293,0.0,-999.0,95,-99.99,,,-99.99,,2013-05-12 07:22:00,
2013-05-12 03:32:00,60.0,59.0,29.59,WNW,300,0.0,-999.0,95,-99.99,,,-99.99,,2013-05-12 07:32:00,
2013-05-12 03:42:00,60.0,59.0,29.59,WNW,300,0.0,-999.0,95,-99.99,,,-99.99,,2013-05-12 07:42:00,
2013-05-12 03:52:00,60.0,59.0,29.60,WNW,302,0.0,-999.0,95,-99.99,,,-99.99,,2013-05-12 07:52:00,
2013-05-12 04:02:00,59.0,58.0,29.61,SSW,204,0.0,-999.0,95,-99.99,,,-99.99,,2013-05-12 08:02:00,
2013-05-12 04:11:00,59.0,58.0,29.61,SSW,204,0.0,-999.0,95,-99.99,,,-99.99,,2013-05-12 08:11:00,
2013-05-12 04:21:00,59.0,58.0,29.61,SSW,204,0.0,-999.0,95,-99.99,,,-99.99,,2013-05-12 08:21:00,
2013-05-12 04:32:00,59.0,58.0,29.61,WSW,254,0.0,-999.0,95,-99.99,,,-99.99,,2013-05-12 08:32:00,
2013-05-12 04:42:00,59.0,58.0,29.61,WSW,254,0.0,-999.0,95,-99.99,,,-99.99,,2013-05-12 08:42:00,
2013-05-12 04:53:00,59.0,58.0,29.60,SW,235,0.0,-999.0,95,-99.99,,,-99.99,,2013-05-12 08:53:00,
2013-05-12 05:01:00,59.0,58.0,29.58,SW,235,0.0,-999.0,95,-99.99,,,-99.99,,2013-05-12 09:01:00,
2013-05-12 05:11:00,59.0,58.0,29.58,SW,235,0.0,-999.0,95,-99.99,,,-99.99,,2013-05-12 09:11:00,
2013-05-12 05:21:00,59.0,58.0,29.59,SW,235,0.0,-999.0,95,-99.99,,,-99.99,,2013-05-12 09:21:00,
2013-05-12 05:33:00,59.0,58.0,29.61,WSW,258,0.0,-999.0,95,-99.99,,,-99.99,,2013-05-12 09:33:00,
2013-05-12 05:43:00,59.0,58.0,29.61,WSW,258,0.0,-999.0,95,-99.99,,,-99.99,,2013-05-12 09:43:00,
2013-05-12 05:52:00,59.0,58.0,29.61,WSW,248,0.0,-999.0,96,-99.99,,,-99.99,,2013-05-12 09:52:00,
2013-05-12 06:03:00,58.0,57.0,29.61,West,261,0.0,-999.0,95,-99.99,,,-99.99,,2013-05-12 10:03:00,
2013-05-12 06:12:00,58.0,57.0,29.61,West,261,0.0,-999.0,95,-99.99,,,-99.99,,2013-05-12 10:12:00,
2013-05-12 06:23:00,58.0,57.0,29.62,West,261,0.0,-999.0,95,-99.99,,,-99.99,,2013-05-12 10:23:00,
2013-05-12 06:33:00,58.0,57.0,29.62,West,261,0.0,-999.0,95,-99.99,,,-99.99,,2013-05-12 10:33:00,
2013-05-12 06:42:00,58.0,57.0,29.62,West,261,0.0,-999.0,95,-99.99,,,-99.99,,2013-05-12 10:42:00,
2013-05-12 06:52:00,58.0,57.0,29.62,West,261,0.0,-999.0,95,-99.99,,,-99.99,,2013-05-12 10:52:00,
2013-05-12 07:02:00,58.0,57.0,29.62,WNW,296,0.0,-999.0,95,-99.99,,,-99.99,,2013-05-12 11:02:00,
2013-05-12 07:12:00,58.0,57.0,29.62,WNW,296,0.0,-999.0,95,-99.99,,,-99.99,,2013-05-12 11:12:00,
2013-05-12 07:22:00,58.0,57.0,29.63,NW,317,0.0,-999.0,95,-99.99,,,-99.99,,2013-05-12 11:22:00,
2013-05-12 07:32:00,57.0,56.0,29.62,WNW,294,1.0,-999.0,95,-99.99,,,-99.99,,2013-05-12 11:32:00,
2013-05-12 07:42:00,57.0,56.0,29.62,WNW,294,1.0,-999.0,95,-99.99,,,-99.99,,2013-05-12 11:42:00,
2013-05-12 07:52:00,57.0,56.0,29.63,WSW,248,0.0,-999.0,95,-99.99,,,-99.99,,2013-05-12 11:52:00,
2013-05-12 08:02:00,57.0,56.0,29.62,West,277,0.0,-999.0,95,-99.99,,,-99.99,,2013-05-12 12:02:00,
2013-05-12 08:11:00,57.0,56.0,29.62,West,277,0.0,-999.0,95,-99.99,,,-99.99,,2013-05-12 12:11:00,
2013-05-12 08:22:00,57.0,55.0,29.62,NNW,333,1.0,-999.0,94,-99.99,,,-99.99,,2013-05-12 12:22:00,
2013-05-12 08:32:00,57.0,55.0,29.63,SW,220,1.0,-999.0,92,-99.99,,,-99.99,,2013-05-12 12:32:00,
2013-05-12 08:42:00,57.0,55.0,29.63,SW,220,1.0,-999.0,92,-99.99,,,-99.99,,2013-05-12 12:42:00,
2013-05-12 08:51:00,57.0,55.0,29.63,NNW,331,0.0,-999.0,92,-99.99,,,-99.99,,2013-05-12 12:51:00,
2013-05-12 09:02:00,58.0,55.0,29.64,West,261,0.0,-999.0,91,-99.99,,,-99.99,,2013-05-12 13:02:00,
2013-05-12 09:11:00,58.0,55.0,29.64,West,261,0.0,-999.0,91,-99.99,,,-99.99,,2013-05-12 13:11:00,
2013-05-12 09:21:00,58.0,55.0,29.64,West,278,1.0,-999.0,89,-99.99,,,-99.99,,2013-05-12 13:21:00,
2013-05-12 09:32:00,60.0,55.0,29.63,West,269,1.0,-999.0,85,-99.99,,,-99.99,,2013-05-12 13:32:00,
2013-05-12 09:42:00,60.0,55.0,29.63,West,269,1.0,-999.0,85,-99.99,,,-99.99,,2013-05-12 13:42:00,
2013-05-12 09:52:00,61.0,55.0,29.63,NNW,338,2.0,-999.0,80,-99.99,,,-99.99,,2013-05-12 13:52:00,
2013-05-12 10:01:00,62.0,54.0,29.62,WNW,290,2.0,-999.0,76,-99.99,,,-99.99,,2013-05-12 14:01:00,
2013-05-12 10:11:00,62.0,54.0,29.62,WNW,290,2.0,-999.0,76,-99.99,,,-99.99,,2013-05-12 14:11:00,
2013-05-12 10:21:00,63.0,54.0,29.62,WSW,244,1.0,-999.0,73,-99.99,,,-99.99,,2013-05-12 14:21:00,
2013-05-12 10:32:00,63.0,52.0,29.62,WNW,284,3.0,-999.0,68,-99.99,,,-99.99,,2013-05-12 14:32:00,
2013-05-12 10:42:00,64.0,53.0,29.62,NW,321,3.0,-999.0,68,-99.99,,,-99.99,,2013-05-12 14:42:00,
2013-05-12 10:52:00,64.0,53.0,29.62,NW,321,3.0,-999.0,68,-99.99,,,-99.99,,2013-05-12 14:52:00,
2013-05-12 11:01:00,66.0,54.0,29.62,West,269,2.0,-999.0,66,-99.99,,,-99.99,,2013-05-12 15:01:00,
2013-05-12 11:11:00,66.0,54.0,29.62,West,269,2.0,-999.0,66,-99.99,,,-99.99,,2013-05-12 15:11:00,
2013-05-12 11:21:00,67.0,54.0,29.62,West,265,3.0,-999.0,63,-99.99,,,-99.99,,2013-05-12 15:21:00,
2013-05-12 11:34:00,67.0,54.0,29.62,WNW,292,3.0,-999.0,63,-99.99,,,-99.99,,2013-05-12 15:34:00,
2013-05-12 11:42:00,67.0,54.0,29.62,WNW,292,3.0,-999.0,63,-99.99,,,-99.99,,2013-05-12 15:42:00,
2013-05-12 11:52:00,67.0,53.0,29.62,West,273,4.0,-999.0,61,-99.99,,,-99.99,,2013-05-12 15:52:00,
2013-05-12 12:02:00,67.0,52.0,29.62,NW,310,3.0,-999.0,58,-99.99,,,-99.99,,2013-05-12 16:02:00,
2013-05-12 12:13:00,67.0,52.0,29.62,NW,310,3.0,-999.0,58,-99.99,,,-99.99,,2013-05-12 16:13:00,
2013-05-12 12:23:00,68.0,53.0,29.62,NW,315,3.0,-999.0,58,-99.99,,,-99.99,,2013-05-12 16:23:00,
2013-05-12 12:33:00,68.0,51.0,29.62,WNW,288,3.0,-999.0,54,-99.99,,,-99.99,,2013-05-12 16:33:00,
2013-05-12 12:42:00,68.0,51.0,29.62,WNW,288,3.0,-999.0,54,-99.99,,,-99.99,,2013-05-12 16:42:00,
2013-05-12 12:52:00,69.0,52.0,29.62,NW,325,4.0,-999.0,55,-99.99,,,-99.99,,2013-05-12 16:52:00,
2013-05-12 13:02:00,68.0,49.0,29.62,West,265,3.0,-999.0,51,-99.99,,,-99.99,,2013-05-12 17:02:00,
2013-05-12 13:12:00,68.0,49.0,29.62,West,265,3.0,-999.0,51,-99.99,,,-99.99,,2013-05-12 17:12:00,
2013-05-12 13:22:00,68.0,51.0,29.62,WSW,246,3.0,-999.0,54,-99.99,,,-99.99,,2013-05-12 17:22:00,
2013-05-12 13:32:00,66.0,47.0,29.62,West,269,4.0,-999.0,50,-99.99,,,-99.99,,2013-05-12 17:32:00,
2013-05-12 13:42:00,66.0,47.0,29.62,West,269,4.0,-999.0,50,-99.99,,,-99.99,,2013-05-12 17:42:00,
2013-05-12 13:52:00,68.0,46.0,29.62,WNW,289,4.0,-999.0,46,-99.99,,,-99.99,,2013-05-12 17:52:00,
2013-05-12 14:01:00,70.0,46.0,29.62,NNE,15,3.0,-999.0,43,-99.99,,,-99.99,,2013-05-12 18:01:00,
2013-05-12 14:12:00,70.0,46.0,29.62,NNE,15,3.0,-999.0,43,-99.99,,,-99.99,,2013-05-12 18:12:00,
2013-05-12 14:22:00,70.0,46.0,29.62,SSE,163,3.0,-999.0,43,-99.99,,,-99.99,,2013-05-12 18:22:00,
2013-05-12 14:32:00,70.0,45.0,29.62,West,268,4.0,-999.0,41,-99.99,,,-99.99,,2013-05-12 18:32:00,
2013-05-12 14:42:00,70.0,45.0,29.62,West,268,4.0,-999.0,41,-99.99,,,-99.99,,2013-05-12 18:42:00,
2013-05-12 14:52:00,70.0,43.0,29.62,WSW,247,5.0,-999.0,38,-99.99,,,-99.99,,2013-05-12 18:52:00,
2013-05-12 15:01:00,70.0,40.0,29.63,ESE,113,4.0,-999.0,34,-99.99,,,-99.99,,2013-05-12 19:01:00,
2013-05-12 15:11:00,70.0,40.0,29.63,ESE,113,4.0,-999.0,34,-99.99,,,-99.99,,2013-05-12 19:11:00,
2013-05-12 15:22:00,69.0,39.0,29.63,NW,313,5.0,-999.0,34,-99.99,,,-99.99,,2013-05-12 19:22:00,
2013-05-12 15:32:00,69.0,40.0,29.63,NW,325,4.0,-999.0,35,-99.99,,,-99.99,,2013-05-12 19:32:00,
2013-05-12 15:42:00,69.0,36.0,29.63,West,277,5.0,-999.0,30,-99.99,,,-99.99,,2013-05-12 19:42:00,
2013-05-12 15:52:00,69.0,36.0,29.63,West,277,5.0,-999.0,30,-99.99,,,-99.99,,2013-05-12 19:52:00,
2013-05-12 16:02:00,69.0,39.0,29.64,WSW,238,5.0,-999.0,33,-99.99,,,-99.99,,2013-05-12 20:02:00,
2013-05-12 16:11:00,69.0,39.0,29.64,WSW,238,5.0,-999.0,33,-99.99,,,-99.99,,2013-05-12 20:11:00,
2013-05-12 16:22:00,69.0,35.0,29.64,NW,312,4.0,-999.0,29,-99.99,,,-99.99,,2013-05-12 20:22:00,
2013-05-12 16:32:00,68.0,35.0,29.64,NW,315,5.0,-999.0,30,-99.99,,,-99.99,,2013-05-12 20:32:00,
2013-05-12 16:42:00,68.0,35.0,29.64,NW,315,5.0,-999.0,30,-99.99,,,-99.99,,2013-05-12 20:42:00,
2013-05-12 16:52:00,68.0,36.0,29.65,NW,322,5.0,-999.0,31,-99.99,,,-99.99,,2013-05-12 20:52:00,
2013-05-12 17:01:00,68.0,36.0,29.65,West,266,4.0,-999.0,31,-99.99,,,-99.99,,2013-05-12 21:01:00,
2013-05-12 17:11:00,68.0,36.0,29.65,West,266,4.0,-999.0,31,-99.99,,,-99.99,,2013-05-12 21:11:00,
2013-05-12 17:21:00,67.0,38.0,29.66,WSW,253,5.0,-999.0,34,-99.99,,,-99.99,,2013-05-12 21:21:00,
2013-05-12 17:33:00,66.0,37.0,29.67,NW,322,5.0,-999.0,34,-99.99,,,-99.99,,2013-05-12 21:33:00,
2013-05-12 17:42:00,66.0,37.0,29.67,NW,322,5.0,-999.0,34,-99.99,,,-99.99,,2013-05-12 21:42:00,
2013-05-12 17:53:00,65.0,35.0,29.69,NW,314,4.0,-999.0,33,-99.99,,,-99.99,,2013-05-12 21:53:00,
2013-05-12 18:02:00,63.0,35.0,29.69,West,275,5.0,-999.0,35,-99.99,,,-99.99,,2013-05-12 22:02:00,
2013-05-12 18:12:00,63.0,35.0,29.69,West,275,5.0,-999.0,35,-99.99,,,-99.99,,2013-05-12 22:12:00,
2013-05-12 18:23:00,63.0,35.0,29.70,NW,320,4.0,-999.0,35,-99.99,,,-99.99,,2013-05-12 22:23:00,
2013-05-12 18:33:00,62.0,33.0,29.70,NW,325,3.0,-999.0,34,-99.99,,,-99.99,,2013-05-12 22:33:00,
2013-05-12 18:42:00,62.0,33.0,29.70,NW,325,3.0,-999.0,34,-99.99,,,-99.99,,2013-05-12 22:42:00,
2013-05-12 18:52:00,61.0,34.0,29.70,WNW,292,3.0,-999.0,36,-99.99,,,-99.99,,2013-05-12 22:52:00,
2013-05-12 19:02:00,61.0,32.0,29.71,NW,308,4.0,-999.0,34,-99.99,,,-99.99,,2013-05-12 23:02:00,
2013-05-12 19:12:00,61.0,32.0,29.71,NW,308,4.0,-999.0,34,-99.99,,,-99.99,,2013-05-12 23:12:00,
2013-05-12 19:22:00,60.0,32.0,29.72,West,269,3.0,-999.0,34,-99.99,,,-99.99,,2013-05-12 23:22:00,
2013-05-12 19:32:00,59.0,31.0,29.73,NW,324,4.0,-999.0,34,-99.99,,,-99.99,,2013-05-12 23:32:00,
2013-05-12 19:42:00,59.0,31.0,29.73,NW,324,4.0,-999.0,34,-99.99,,,-99.99,,2013-05-12 23:42:00,
2013-05-12 19:52:00,58.0,31.0,29.74,West,263,2.0,-999.0,36,-99.99,,,-99.99,,2013-05-12 23:52:00,
2013-05-12 20:01:00,58.0,33.0,29.75,NW,321,2.0,-999.0,39,-99.99,,,-99.99,,2013-05-13 00:01:00,
2013-05-12 20:11:00,58.0,33.0,29.75,NW,321,2.0,-999.0,39,-99.99,,,-99.99,,2013-05-13 00:11:00,
2013-05-12 20:22:00,57.0,33.0,29.75,West,271,1.0,-999.0,40,-99.99,,,-99.99,,2013-05-13 00:22:00,
2013-05-12 20:32:00,56.0,32.0,29.75,WNW,298,1.0,-999.0,40,-99.99,,,-99.99,,2013-05-13 00:32:00,
2013-05-12 20:42:00,56.0,32.0,29.75,WNW,298,1.0,-999.0,40,-99.99,,,-99.99,,2013-05-13 00:42:00,
2013-05-12 20:52:00,56.0,31.0,29.76,NNW,327,1.0,-999.0,39,-99.99,,,-99.99,,2013-05-13 00:52:00,
2013-05-12 21:01:00,55.0,31.0,29.77,WNW,293,1.0,-999.0,39,-99.99,,,-99.99,,2013-05-13 01:01:00,
2013-05-12 21:11:00,55.0,31.0,29.77,WNW,293,1.0,-999.0,39,-99.99,,,-99.99,,2013-05-13 01:11:00,
2013-05-12 21:22:00,55.0,32.0,29.78,West,264,1.0,-999.0,42,-99.99,,,-99.99,,2013-05-13 01:22:00,
2013-05-12 21:32:00,54.0,30.0,29.79,NW,305,1.0,-999.0,40,-99.99,,,-99.99,,2013-05-13 01:32:00,
2013-05-12 21:42:00,54.0,30.0,29.79,NW,305,1.0,-999.0,40,-99.99,,,-99.99,,2013-05-13 01:42:00,
2013-05-12 21:52:00,54.0,33.0,29.80,WNW,290,0.0,-999.0,44,-99.99,,,-99.99,,2013-05-13 01:52:00,
2013-05-12 22:02:00,53.0,32.0,29.81,West,281,0.0,-999.0,44,-99.99,,,-99.99,,2013-05-13 02:02:00,
2013-05-12 22:11:00,53.0,32.0,29.81,West,281,0.0,-999.0,44,-99.99,,,-99.99,,2013-05-13 02:11:00,
2013-05-12 22:21:00,52.0,32.0,29.82,West,281,0.0,-999.0,47,-99.99,,,-99.99,,2013-05-13 02:21:00,
2013-05-12 22:32:00,51.0,32.0,29.82,West,280,0.0,-999.0,48,-99.99,,,-99.99,,2013-05-13 02:32:00,
2013-05-12 22:42:00,51.0,32.0,29.82,West,280,0.0,-999.0,48,-99.99,,,-99.99,,2013-05-13 02:42:00,
2013-05-12 22:52:00,51.0,32.0,29.83,NNW,329,0.0,-999.0,48,-99.99,,,-99.99,,2013-05-13 02:52:00,
2013-05-12 23:02:00,51.0,33.0,29.83,WNW,285,0.0,-999.0,49,-99.99,,,-99.99,,2013-05-13 03:02:00,
2013-05-12 23:11:00,51.0,33.0,29.83,WNW,285,0.0,-999.0,49,-99.99,,,-99.99,,2013-05-13 03:11:00,
2013-05-12 23:21:00,50.0,33.0,29.84,WNW,288,0.0,-999.0,51,-99.99,,,-99.99,,2013-05-13 03:21:00,
2013-05-12 23:32:00,50.0,35.0,29.84,WNW,289,0.0,-999.0,56,-99.99,,,-99.99,,2013-05-13 03:32:00,
2013-05-12 23:42:00,50.0,35.0,29.84,WNW,289,0.0,-999.0,56,-99.99,,,-99.99,,2013-05-13 03:42:00,
2013-05-12 23:53:00,49.0,34.0,29.85,WNW,289,0.0,-999.0,56,-99.99,,,-99.99,,2013-05-13 03:53:00,